Terminal Aerodrome Forecast
Issued by NWS

Home | Current Version | Previous Version | Text Only | Print | Product List | Glossary On
Versions: 1 2 3 4 5 6 7 8 9 10 11 12 13 14 15 16 17 18
000
FTUS42 KMHX 190500
TAFISO
TAF
KISO 190536Z 1906/2006 04012KT 6SM RA OVC007
     FM190900 03012KT 4SM RA OVC007
     FM191400 04014G20KT 4SM -RA BR BKN007 OVC015
      AMD LTD TO CLD VIS AND WIND=

USA.gov is the U.S. government's official web portal to all federal, state and local government web resources and services.